sensor_id;sensor_type;location;lat;lon;timestamp;P1;durP1;ratioP1;P2;durP2;ratioP2
55728;SDS011;41633;39.720;2.910;2022-09-16T00:00:26;11.57;;;3.10;;
55728;SDS011;41633;39.720;2.910;2022-09-16T00:02:54;13.32;;;3.88;;
55728;SDS011;41633;39.720;2.910;2022-09-16T00:05:20;10.90;;;3.72;;
55728;SDS011;41633;39.720;2.910;2022-09-16T00:07:47;10.65;;;3.33;;
55728;SDS011;41633;39.720;2.910;2022-09-16T00:10:13;12.95;;;3.95;;
55728;SDS011;41633;39.720;2.910;2022-09-16T00:12:39;10.05;;;3.45;;
55728;SDS011;41633;39.720;2.910;2022-09-16T00:15:06;12.40;;;3.50;;
55728;SDS011;41633;39.720;2.910;2022-09-16T00:17:32;14.07;;;3.83;;
55728;SDS011;41633;39.720;2.910;2022-09-16T00:19:58;10.52;;;3.60;;
55728;SDS011;41633;39.720;2.910;2022-09-16T00:22:26;11.18;;;3.30;;
55728;SDS011;41633;39.720;2.910;2022-09-16T00:24:52;10.32;;;3.33;;
55728;SDS011;41633;39.720;2.910;2022-09-16T00:27:18;12.77;;;3.25;;
55728;SDS011;41633;39.720;2.910;2022-09-16T00:29:44;12.55;;;3.28;;
55728;SDS011;41633;39.720;2.910;2022-09-16T00:32:11;10.60;;;2.78;;
55728;SDS011;41633;39.720;2.910;2022-09-16T00:34:37;17.27;;;4.40;;
55728;SDS011;41633;39.720;2.910;2022-09-16T00:37:03;13.48;;;3.20;;
55728;SDS011;41633;39.720;2.910;2022-09-16T00:39:32;10.07;;;3.13;;
55728;SDS011;41633;39.720;2.910;2022-09-16T00:41:59;9.73;;;3.00;;
55728;SDS011;41633;39.720;2.910;2022-09-16T00:47:11;10.05;;;2.25;;
55728;SDS011;41633;39.720;2.910;2022-09-16T00:49:37;8.38;;;1.95;;
55728;SDS011;41633;39.720;2.910;2022-09-16T00:52:04;9.93;;;2.33;;
55728;SDS011;41633;39.720;2.910;2022-09-16T00:54:30;7.65;;;2.03;;
55728;SDS011;41633;39.720;2.910;2022-09-16T00:56:57;8.07;;;1.90;;
55728;SDS011;41633;39.720;2.910;2022-09-16T00:59:31;8.68;;;2.00;;
55728;SDS011;41633;39.720;2.910;2022-09-16T01:01:59;7.65;;;1.95;;
55728;SDS011;41633;39.720;2.910;2022-09-16T01:04:30;7.75;;;2.20;;
55728;SDS011;41633;39.720;2.910;2022-09-16T01:06:57;8.85;;;2.08;;
55728;SDS011;41633;39.720;2.910;2022-09-16T01:09:24;7.95;;;2.13;;
55728;SDS011;41633;39.720;2.910;2022-09-16T01:11:51;7.18;;;1.63;;
55728;SDS011;41633;39.720;2.910;2022-09-16T01:14:17;9.35;;;2.08;;
55728;SDS011;41633;39.720;2.910;2022-09-16T01:17:39;7.50;;;1.70;;
55728;SDS011;41633;39.720;2.910;2022-09-16T01:27:50;9.48;;;2.17;;
55728;SDS011;41633;39.720;2.910;2022-09-16T01:38:19;9.93;;;2.20;;
55728;SDS011;41633;39.720;2.910;2022-09-16T01:40:49;8.93;;;1.95;;
55728;SDS011;41633;39.720;2.910;2022-09-16T01:45:51;8.93;;;2.03;;
55728;SDS011;41633;39.720;2.910;2022-09-16T01:51:07;12.93;;;2.35;;
55728;SDS011;41633;39.720;2.910;2022-09-16T01:53:38;8.80;;;1.98;;
55728;SDS011;41633;39.720;2.910;2022-09-16T01:56:15;9.48;;;1.85;;
55728;SDS011;41633;39.720;2.910;2022-09-16T01:58:46;8.98;;;2.00;;
55728;SDS011;41633;39.720;2.910;2022-09-16T02:01:29;7.43;;;1.70;;
55728;SDS011;41633;39.720;2.910;2022-09-16T02:03:59;8.20;;;2.25;;
55728;SDS011;41633;39.720;2.910;2022-09-16T02:06:27;7.45;;;1.80;;
55728;SDS011;41633;39.720;2.910;2022-09-16T02:08:56;8.18;;;2.08;;
55728;SDS011;41633;39.720;2.910;2022-09-16T02:11:23;7.30;;;1.95;;
55728;SDS011;41633;39.720;2.910;2022-09-16T02:13:54;7.93;;;1.98;;
55728;SDS011;41633;39.720;2.910;2022-09-16T02:16:27;8.82;;;2.22;;
55728;SDS011;41633;39.720;2.910;2022-09-16T02:18:56;9.68;;;2.30;;
55728;SDS011;41633;39.720;2.910;2022-09-16T02:21:23;9.52;;;2.33;;
55728;SDS011;41633;39.720;2.910;2022-09-16T02:23:51;10.98;;;2.40;;
55728;SDS011;41633;39.720;2.910;2022-09-16T02:26:20;10.35;;;2.85;;
55728;SDS011;41633;39.720;2.910;2022-09-16T02:28:49;11.32;;;2.55;;
55728;SDS011;41633;39.720;2.910;2022-09-16T02:31:18;9.98;;;2.58;;
55728;SDS011;41633;39.720;2.910;2022-09-16T02:33:53;8.98;;;2.65;;
55728;SDS011;41633;39.720;2.910;2022-09-16T02:36:20;10.38;;;2.67;;
55728;SDS011;41633;39.720;2.910;2022-09-16T02:38:48;11.38;;;2.70;;
55728;SDS011;41633;39.720;2.910;2022-09-16T02:41:16;11.07;;;2.70;;
55728;SDS011;41633;39.720;2.910;2022-09-16T02:43:42;10.38;;;2.55;;
55728;SDS011;41633;39.720;2.910;2022-09-16T02:48:47;10.90;;;3.13;;
55728;SDS011;41633;39.720;2.910;2022-09-16T02:53:54;9.43;;;2.22;;
55728;SDS011;41633;39.720;2.910;2022-09-16T02:56:35;9.82;;;2.35;;
55728;SDS011;41633;39.720;2.910;2022-09-16T02:59:02;8.07;;;2.17;;
55728;SDS011;41633;39.720;2.910;2022-09-16T03:01:30;8.02;;;1.80;;
55728;SDS011;41633;39.720;2.910;2022-09-16T03:03:57;7.50;;;1.80;;
55728;SDS011;41633;39.720;2.910;2022-09-16T03:06:24;7.60;;;2.10;;
55728;SDS011;41633;39.720;2.910;2022-09-16T03:08:51;7.93;;;1.90;;
55728;SDS011;41633;39.720;2.910;2022-09-16T03:16:49;10.32;;;2.38;;
55728;SDS011;41633;39.720;2.910;2022-09-16T03:27:00;8.65;;;2.20;;
55728;SDS011;41633;39.720;2.910;2022-09-16T03:29:45;10.07;;;2.30;;
55728;SDS011;41633;39.720;2.910;2022-09-16T03:32:28;10.15;;;2.45;;
55728;SDS011;41633;39.720;2.910;2022-09-16T03:37:28;7.82;;;1.80;;
55728;SDS011;41633;39.720;2.910;2022-09-16T03:39:58;9.30;;;2.00;;
55728;SDS011;41633;39.720;2.910;2022-09-16T03:42:25;7.85;;;2.03;;
55728;SDS011;41633;39.720;2.910;2022-09-16T03:44:51;7.32;;;1.83;;
55728;SDS011;41633;39.720;2.910;2022-09-16T03:47:17;9.43;;;1.80;;
55728;SDS011;41633;39.720;2.910;2022-09-16T03:49:43;7.35;;;1.83;;
55728;SDS011;41633;39.720;2.910;2022-09-16T03:52:09;9.75;;;1.80;;
55728;SDS011;41633;39.720;2.910;2022-09-16T03:54:36;9.48;;;1.52;;
55728;SDS011;41633;39.720;2.910;2022-09-16T03:57:02;4.72;;;1.40;;
55728;SDS011;41633;39.720;2.910;2022-09-16T03:59:29;7.60;;;1.75;;
55728;SDS011;41633;39.720;2.910;2022-09-16T04:01:55;6.45;;;1.50;;
55728;SDS011;41633;39.720;2.910;2022-09-16T04:04:21;9.18;;;1.98;;
55728;SDS011;41633;39.720;2.910;2022-09-16T04:06:47;7.25;;;1.73;;
55728;SDS011;41633;39.720;2.910;2022-09-16T04:09:13;8.63;;;1.70;;
55728;SDS011;41633;39.720;2.910;2022-09-16T04:11:41;8.07;;;2.00;;
55728;SDS011;41633;39.720;2.910;2022-09-16T04:14:07;8.57;;;1.90;;
55728;SDS011;41633;39.720;2.910;2022-09-16T04:16:33;7.72;;;1.83;;
55728;SDS011;41633;39.720;2.910;2022-09-16T04:18:59;7.00;;;1.70;;
55728;SDS011;41633;39.720;2.910;2022-09-16T04:21:25;9.68;;;2.35;;
55728;SDS011;41633;39.720;2.910;2022-09-16T04:23:51;10.95;;;1.90;;
55728;SDS011;41633;39.720;2.910;2022-09-16T04:26:18;7.72;;;1.83;;
55728;SDS011;41633;39.720;2.910;2022-09-16T04:28:45;9.93;;;1.83;;
55728;SDS011;41633;39.720;2.910;2022-09-16T04:31:13;7.75;;;1.85;;
55728;SDS011;41633;39.720;2.910;2022-09-16T04:33:39;7.38;;;2.03;;
55728;SDS011;41633;39.720;2.910;2022-09-16T04:38:36;8.50;;;2.25;;
55728;SDS011;41633;39.720;2.910;2022-09-16T04:41:03;6.38;;;1.80;;
55728;SDS011;41633;39.720;2.910;2022-09-16T04:43:29;12.00;;;2.13;;
55728;SDS011;41633;39.720;2.910;2022-09-16T04:45:56;10.48;;;2.60;;
55728;SDS011;41633;39.720;2.910;2022-09-16T04:48:22;11.25;;;2.45;;
55728;SDS011;41633;39.720;2.910;2022-09-16T04:50:49;12.20;;;2.50;;
55728;SDS011;41633;39.720;2.910;2022-09-16T04:53:16;16.33;;;2.40;;
55728;SDS011;41633;39.720;2.910;2022-09-16T04:55:43;8.93;;;2.20;;
55728;SDS011;41633;39.720;2.910;2022-09-16T04:58:09;12.95;;;2.20;;
55728;SDS011;41633;39.720;2.910;2022-09-16T05:00:35;12.35;;;2.22;;
55728;SDS011;41633;39.720;2.910;2022-09-16T05:03:01;13.25;;;2.58;;
55728;SDS011;41633;39.720;2.910;2022-09-16T05:05:27;11.30;;;2.35;;
55728;SDS011;41633;39.720;2.910;2022-09-16T05:07:53;10.73;;;2.22;;
55728;SDS011;41633;39.720;2.910;2022-09-16T05:10:20;9.98;;;2.10;;
55728;SDS011;41633;39.720;2.910;2022-09-16T05:12:52;8.85;;;2.00;;
55728;SDS011;41633;39.720;2.910;2022-09-16T05:15:19;9.38;;;2.50;;
55728;SDS011;41633;39.720;2.910;2022-09-16T05:17:45;16.65;;;2.75;;
55728;SDS011;41633;39.720;2.910;2022-09-16T05:20:11;13.90;;;2.50;;
55728;SDS011;41633;39.720;2.910;2022-09-16T05:22:38;11.07;;;2.50;;
55728;SDS011;41633;39.720;2.910;2022-09-16T05:25:04;7.15;;;1.80;;
55728;SDS011;41633;39.720;2.910;2022-09-16T05:27:31;8.05;;;1.90;;
55728;SDS011;41633;39.720;2.910;2022-09-16T05:29:58;9.23;;;2.13;;
55728;SDS011;41633;39.720;2.910;2022-09-16T05:32:24;10.45;;;2.00;;
55728;SDS011;41633;39.720;2.910;2022-09-16T05:34:51;9.75;;;2.10;;
55728;SDS011;41633;39.720;2.910;2022-09-16T05:37:18;9.27;;;1.70;;
55728;SDS011;41633;39.720;2.910;2022-09-16T05:39:44;8.15;;;2.10;;
55728;SDS011;41633;39.720;2.910;2022-09-16T05:42:10;8.15;;;1.70;;
55728;SDS011;41633;39.720;2.910;2022-09-16T05:44:36;9.02;;;2.22;;
55728;SDS011;41633;39.720;2.910;2022-09-16T05:47:02;8.43;;;2.28;;
55728;SDS011;41633;39.720;2.910;2022-09-16T05:51:54;11.43;;;2.00;;
55728;SDS011;41633;39.720;2.910;2022-09-16T05:54:20;8.20;;;2.08;;
55728;SDS011;41633;39.720;2.910;2022-09-16T05:56:49;7.28;;;2.08;;
55728;SDS011;41633;39.720;2.910;2022-09-16T05:59:15;10.15;;;2.10;;
55728;SDS011;41633;39.720;2.910;2022-09-16T06:01:42;9.18;;;2.50;;
55728;SDS011;41633;39.720;2.910;2022-09-16T06:04:09;8.13;;;1.90;;
55728;SDS011;41633;39.720;2.910;2022-09-16T06:06:37;11.00;;;2.50;;
55728;SDS011;41633;39.720;2.910;2022-09-16T06:09:08;10.88;;;2.58;;
55728;SDS011;41633;39.720;2.910;2022-09-16T06:11:35;11.88;;;2.58;;
55728;SDS011;41633;39.720;2.910;2022-09-16T06:14:02;9.10;;;2.38;;
55728;SDS011;41633;39.720;2.910;2022-09-16T06:16:30;10.75;;;2.38;;
55728;SDS011;41633;39.720;2.910;2022-09-16T06:18:57;10.52;;;2.10;;
55728;SDS011;41633;39.720;2.910;2022-09-16T06:21:23;9.23;;;2.13;;
55728;SDS011;41633;39.720;2.910;2022-09-16T06:23:49;11.60;;;2.30;;
55728;SDS011;41633;39.720;2.910;2022-09-16T06:26:17;7.25;;;1.85;;
55728;SDS011;41633;39.720;2.910;2022-09-16T06:28:44;11.23;;;2.30;;
55728;SDS011;41633;39.720;2.910;2022-09-16T06:31:12;9.82;;;2.50;;
55728;SDS011;41633;39.720;2.910;2022-09-16T06:33:38;11.07;;;2.55;;
55728;SDS011;41633;39.720;2.910;2022-09-16T06:36:16;10.52;;;2.35;;
55728;SDS011;41633;39.720;2.910;2022-09-16T06:38:42;11.57;;;2.25;;
55728;SDS011;41633;39.720;2.910;2022-09-16T06:41:09;10.15;;;2.20;;
55728;SDS011;41633;39.720;2.910;2022-09-16T06:43:36;12.70;;;2.72;;
55728;SDS011;41633;39.720;2.910;2022-09-16T06:46:06;12.40;;;2.25;;
55728;SDS011;41633;39.720;2.910;2022-09-16T06:48:41;10.15;;;2.67;;
55728;SDS011;41633;39.720;2.910;2022-09-16T06:51:14;7.70;;;2.13;;
55728;SDS011;41633;39.720;2.910;2022-09-16T06:53:40;10.48;;;2.45;;
55728;SDS011;41633;39.720;2.910;2022-09-16T06:56:08;11.75;;;2.78;;
55728;SDS011;41633;39.720;2.910;2022-09-16T06:58:36;12.15;;;2.67;;
55728;SDS011;41633;39.720;2.910;2022-09-16T07:01:26;7.47;;;2.13;;
55728;SDS011;41633;39.720;2.910;2022-09-16T07:03:50;9.88;;;2.55;;
55728;SDS011;41633;39.720;2.910;2022-09-16T07:06:17;13.15;;;4.65;;
55728;SDS011;41633;39.720;2.910;2022-09-16T07:08:44;11.77;;;4.18;;
55728;SDS011;41633;39.720;2.910;2022-09-16T07:11:11;24.55;;;5.78;;
55728;SDS011;41633;39.720;2.910;2022-09-16T07:13:38;15.20;;;4.22;;
55728;SDS011;41633;39.720;2.910;2022-09-16T07:16:05;13.75;;;3.25;;
55728;SDS011;41633;39.720;2.910;2022-09-16T07:18:31;12.05;;;2.35;;
55728;SDS011;41633;39.720;2.910;2022-09-16T07:21:09;14.02;;;2.67;;
55728;SDS011;41633;39.720;2.910;2022-09-16T07:23:37;11.43;;;2.50;;
55728;SDS011;41633;39.720;2.910;2022-09-16T07:26:04;14.05;;;2.78;;
55728;SDS011;41633;39.720;2.910;2022-09-16T07:28:31;14.82;;;2.65;;
55728;SDS011;41633;39.720;2.910;2022-09-16T07:31:04;11.25;;;2.75;;
55728;SDS011;41633;39.720;2.910;2022-09-16T07:33:31;16.30;;;3.00;;
55728;SDS011;41633;39.720;2.910;2022-09-16T07:36:01;12.18;;;2.72;;
55728;SDS011;41633;39.720;2.910;2022-09-16T07:38:28;13.82;;;2.30;;
55728;SDS011;41633;39.720;2.910;2022-09-16T07:40:54;12.30;;;2.50;;
55728;SDS011;41633;39.720;2.910;2022-09-16T07:43:21;10.82;;;2.20;;
55728;SDS011;41633;39.720;2.910;2022-09-16T07:45:54;12.23;;;2.53;;
55728;SDS011;41633;39.720;2.910;2022-09-16T07:48:20;11.10;;;1.98;;
55728;SDS011;41633;39.720;2.910;2022-09-16T07:51:21;12.25;;;2.25;;
55728;SDS011;41633;39.720;2.910;2022-09-16T07:53:39;13.07;;;2.65;;
55728;SDS011;41633;39.720;2.910;2022-09-16T07:56:06;16.17;;;2.50;;
55728;SDS011;41633;39.720;2.910;2022-09-16T07:58:32;13.65;;;3.42;;
55728;SDS011;41633;39.720;2.910;2022-09-16T08:00:59;10.93;;;2.17;;
55728;SDS011;41633;39.720;2.910;2022-09-16T08:03:25;12.05;;;2.92;;
55728;SDS011;41633;39.720;2.910;2022-09-16T08:05:51;16.65;;;2.60;;
55728;SDS011;41633;39.720;2.910;2022-09-16T08:08:17;10.32;;;2.17;;
55728;SDS011;41633;39.720;2.910;2022-09-16T08:10:51;8.90;;;2.08;;
55728;SDS011;41633;39.720;2.910;2022-09-16T08:13:17;10.55;;;2.10;;
55728;SDS011;41633;39.720;2.910;2022-09-16T08:15:43;11.52;;;1.80;;
55728;SDS011;41633;39.720;2.910;2022-09-16T08:18:10;8.48;;;2.10;;
55728;SDS011;41633;39.720;2.910;2022-09-16T08:20:36;8.30;;;1.98;;
55728;SDS011;41633;39.720;2.910;2022-09-16T08:23:02;7.10;;;1.75;;
55728;SDS011;41633;39.720;2.910;2022-09-16T08:25:28;8.48;;;1.85;;
55728;SDS011;41633;39.720;2.910;2022-09-16T08:27:54;7.65;;;1.77;;
55728;SDS011;41633;39.720;2.910;2022-09-16T08:30:20;6.97;;;1.77;;
55728;SDS011;41633;39.720;2.910;2022-09-16T08:32:46;8.63;;;1.80;;
55728;SDS011;41633;39.720;2.910;2022-09-16T08:35:13;12.23;;;2.13;;
55728;SDS011;41633;39.720;2.910;2022-09-16T08:37:39;10.60;;;2.25;;
55728;SDS011;41633;39.720;2.910;2022-09-16T08:40:05;9.95;;;1.98;;
55728;SDS011;41633;39.720;2.910;2022-09-16T08:47:43;7.68;;;1.75;;
55728;SDS011;41633;39.720;2.910;2022-09-16T08:50:14;10.40;;;2.10;;
55728;SDS011;41633;39.720;2.910;2022-09-16T08:52:42;9.80;;;1.75;;
55728;SDS011;41633;39.720;2.910;2022-09-16T08:55:10;7.55;;;1.92;;
55728;SDS011;41633;39.720;2.910;2022-09-16T08:57:38;11.30;;;2.08;;
55728;SDS011;41633;39.720;2.910;2022-09-16T09:00:09;15.75;;;2.92;;
55728;SDS011;41633;39.720;2.910;2022-09-16T09:02:55;8.98;;;2.30;;
55728;SDS011;41633;39.720;2.910;2022-09-16T09:08:17;7.75;;;1.70;;
55728;SDS011;41633;39.720;2.910;2022-09-16T09:10:47;7.32;;;1.80;;
55728;SDS011;41633;39.720;2.910;2022-09-16T09:18:13;7.55;;;1.92;;
55728;SDS011;41633;39.720;2.910;2022-09-16T09:28:17;8.02;;;1.70;;
55728;SDS011;41633;39.720;2.910;2022-09-16T09:30:54;7.43;;;1.77;;
55728;SDS011;41633;39.720;2.910;2022-09-16T09:46:18;8.55;;;1.75;;
55728;SDS011;41633;39.720;2.910;2022-09-16T09:48:49;7.68;;;1.67;;
55728;SDS011;41633;39.720;2.910;2022-09-16T09:53:49;9.55;;;1.70;;
55728;SDS011;41633;39.720;2.910;2022-09-16T09:56:21;10.73;;;2.00;;
55728;SDS011;41633;39.720;2.910;2022-09-16T10:01:29;7.00;;;1.30;;
55728;SDS011;41633;39.720;2.910;2022-09-16T10:03:55;7.85;;;1.60;;
55728;SDS011;41633;39.720;2.910;2022-09-16T10:06:27;6.93;;;1.30;;
55728;SDS011;41633;39.720;2.910;2022-09-16T10:08:55;6.95;;;1.35;;
55728;SDS011;41633;39.720;2.910;2022-09-16T10:11:25;23.30;;;2.75;;
55728;SDS011;41633;39.720;2.910;2022-09-16T10:13:55;15.38;;;1.83;;
55728;SDS011;41633;39.720;2.910;2022-09-16T10:16:29;12.77;;;1.77;;
55728;SDS011;41633;39.720;2.910;2022-09-16T10:19:04;8.38;;;1.80;;
55728;SDS011;41633;39.720;2.910;2022-09-16T10:21:41;6.82;;;1.63;;
55728;SDS011;41633;39.720;2.910;2022-09-16T10:24:32;6.50;;;1.70;;
55728;SDS011;41633;39.720;2.910;2022-09-16T10:26:56;10.50;;;2.17;;
55728;SDS011;41633;39.720;2.910;2022-09-16T10:29:23;14.77;;;2.33;;
55728;SDS011;41633;39.720;2.910;2022-09-16T10:31:49;14.13;;;2.38;;
55728;SDS011;41633;39.720;2.910;2022-09-16T10:36:41;13.30;;;2.20;;
55728;SDS011;41633;39.720;2.910;2022-09-16T10:39:16;15.75;;;2.40;;
55728;SDS011;41633;39.720;2.910;2022-09-16T10:41:46;12.60;;;1.80;;
55728;SDS011;41633;39.720;2.910;2022-09-16T10:44:13;8.55;;;1.50;;
55728;SDS011;41633;39.720;2.910;2022-09-16T10:46:50;8.40;;;1.45;;
55728;SDS011;41633;39.720;2.910;2022-09-16T10:49:18;7.80;;;1.50;;
55728;SDS011;41633;39.720;2.910;2022-09-16T10:51:45;11.32;;;1.42;;
55728;SDS011;41633;39.720;2.910;2022-09-16T10:54:22;4.88;;;1.23;;
55728;SDS011;41633;39.720;2.910;2022-09-16T10:56:49;5.45;;;1.10;;
55728;SDS011;41633;39.720;2.910;2022-09-16T10:59:15;6.30;;;1.17;;
55728;SDS011;41633;39.720;2.910;2022-09-16T11:01:43;8.55;;;1.67;;
55728;SDS011;41633;39.720;2.910;2022-09-16T11:12:30;10.35;;;1.67;;
55728;SDS011;41633;39.720;2.910;2022-09-16T11:15:13;8.93;;;1.80;;
55728;SDS011;41633;39.720;2.910;2022-09-16T11:27:51;13.48;;;2.65;;
55728;SDS011;41633;39.720;2.910;2022-09-16T11:30:20;12.07;;;3.08;;
55728;SDS011;41633;39.720;2.910;2022-09-16T11:37:50;11.52;;;3.08;;
55728;SDS011;41633;39.720;2.910;2022-09-16T11:40:32;12.98;;;3.28;;
55728;SDS011;41633;39.720;2.910;2022-09-16T11:46:00;10.18;;;2.90;;
55728;SDS011;41633;39.720;2.910;2022-09-16T11:56:19;11.50;;;2.10;;
55728;SDS011;41633;39.720;2.910;2022-09-16T11:58:50;7.60;;;1.83;;
55728;SDS011;41633;39.720;2.910;2022-09-16T12:03:50;8.38;;;2.30;;
55728;SDS011;41633;39.720;2.910;2022-09-16T12:06:20;10.90;;;5.45;;
55728;SDS011;41633;39.720;2.910;2022-09-16T12:14:07;11.02;;;3.20;;
55728;SDS011;41633;39.720;2.910;2022-09-16T12:19:24;7.15;;;2.00;;
55728;SDS011;41633;39.720;2.910;2022-09-16T12:21:57;7.38;;;1.60;;
55728;SDS011;41633;39.720;2.910;2022-09-16T12:24:35;6.88;;;1.42;;
55728;SDS011;41633;39.720;2.910;2022-09-16T12:27:14;8.18;;;1.30;;
55728;SDS011;41633;39.720;2.910;2022-09-16T12:29:49;6.93;;;1.85;;
55728;SDS011;41633;39.720;2.910;2022-09-16T12:32:20;7.10;;;1.65;;
55728;SDS011;41633;39.720;2.910;2022-09-16T12:34:48;5.93;;;1.50;;
55728;SDS011;41633;39.720;2.910;2022-09-16T12:39:43;6.47;;;1.50;;
55728;SDS011;41633;39.720;2.910;2022-09-16T12:47:37;7.85;;;1.70;;
55728;SDS011;41633;39.720;2.910;2022-09-16T12:55:40;8.27;;;2.38;;
55728;SDS011;41633;39.720;2.910;2022-09-16T13:00:39;8.38;;;2.17;;
55728;SDS011;41633;39.720;2.910;2022-09-16T13:03:16;11.45;;;2.67;;
55728;SDS011;41633;39.720;2.910;2022-09-16T13:05:45;11.40;;;3.00;;
55728;SDS011;41633;39.720;2.910;2022-09-16T13:08:22;15.75;;;3.67;;
55728;SDS011;41633;39.720;2.910;2022-09-16T13:11:00;12.65;;;3.20;;
55728;SDS011;41633;39.720;2.910;2022-09-16T13:13:41;15.57;;;3.85;;
55728;SDS011;41633;39.720;2.910;2022-09-16T13:16:10;14.45;;;4.93;;
55728;SDS011;41633;39.720;2.910;2022-09-16T13:21:11;13.75;;;4.10;;
55728;SDS011;41633;39.720;2.910;2022-09-16T13:23:39;11.50;;;2.70;;
55728;SDS011;41633;39.720;2.910;2022-09-16T13:26:07;11.35;;;2.92;;
55728;SDS011;41633;39.720;2.910;2022-09-16T13:28:35;8.77;;;2.20;;
55728;SDS011;41633;39.720;2.910;2022-09-16T13:33:41;9.63;;;2.30;;
55728;SDS011;41633;39.720;2.910;2022-09-16T13:38:56;9.63;;;2.63;;
55728;SDS011;41633;39.720;2.910;2022-09-16T13:43:55;8.70;;;1.90;;
55728;SDS011;41633;39.720;2.910;2022-09-16T13:46:25;9.02;;;2.25;;
55728;SDS011;41633;39.720;2.910;2022-09-16T13:48:56;9.60;;;2.63;;
55728;SDS011;41633;39.720;2.910;2022-09-16T13:51:24;9.98;;;2.63;;
55728;SDS011;41633;39.720;2.910;2022-09-16T13:53:50;13.48;;;2.90;;
55728;SDS011;41633;39.720;2.910;2022-09-16T13:56:31;9.38;;;2.65;;
55728;SDS011;41633;39.720;2.910;2022-09-16T14:01:33;10.13;;;2.80;;
55728;SDS011;41633;39.720;2.910;2022-09-16T14:04:06;14.32;;;3.10;;
55728;SDS011;41633;39.720;2.910;2022-09-16T14:06:49;9.63;;;2.90;;
55728;SDS011;41633;39.720;2.910;2022-09-16T14:09:27;14.38;;;3.10;;
55728;SDS011;41633;39.720;2.910;2022-09-16T14:14:22;14.02;;;3.53;;
55728;SDS011;41633;39.720;2.910;2022-09-16T14:16:50;10.93;;;3.08;;
55728;SDS011;41633;39.720;2.910;2022-09-16T14:19:23;13.13;;;3.15;;
55728;SDS011;41633;39.720;2.910;2022-09-16T14:22:32;13.95;;;3.38;;
55728;SDS011;41633;39.720;2.910;2022-09-16T14:24:41;10.05;;;2.65;;
55728;SDS011;41633;39.720;2.910;2022-09-16T14:27:18;10.13;;;2.90;;
55728;SDS011;41633;39.720;2.910;2022-09-16T14:29:55;11.05;;;2.90;;
55728;SDS011;41633;39.720;2.910;2022-09-16T14:32:22;11.60;;;2.97;;
55728;SDS011;41633;39.720;2.910;2022-09-16T14:34:49;12.05;;;2.80;;
55728;SDS011;41633;39.720;2.910;2022-09-16T14:37:16;10.52;;;3.05;;
55728;SDS011;41633;39.720;2.910;2022-09-16T14:39:43;13.15;;;3.35;;
55728;SDS011;41633;39.720;2.910;2022-09-16T14:42:13;11.50;;;2.83;;
55728;SDS011;41633;39.720;2.910;2022-09-16T14:44:45;13.30;;;3.13;;
55728;SDS011;41633;39.720;2.910;2022-09-16T14:47:22;11.48;;;2.70;;
55728;SDS011;41633;39.720;2.910;2022-09-16T14:49:51;13.18;;;3.20;;
55728;SDS011;41633;39.720;2.910;2022-09-16T14:52:24;9.85;;;2.92;;
55728;SDS011;41633;39.720;2.910;2022-09-16T14:54:51;10.68;;;2.60;;
55728;SDS011;41633;39.720;2.910;2022-09-16T14:57:26;10.73;;;2.55;;
55728;SDS011;41633;39.720;2.910;2022-09-16T14:59:57;13.52;;;3.03;;
55728;SDS011;41633;39.720;2.910;2022-09-16T15:02:32;11.60;;;2.78;;
55728;SDS011;41633;39.720;2.910;2022-09-16T15:05:00;11.68;;;3.25;;
55728;SDS011;41633;39.720;2.910;2022-09-16T15:07:29;11.60;;;3.20;;
55728;SDS011;41633;39.720;2.910;2022-09-16T15:13:07;11.35;;;2.70;;
55728;SDS011;41633;39.720;2.910;2022-09-16T15:15:25;13.18;;;3.00;;
55728;SDS011;41633;39.720;2.910;2022-09-16T15:18:02;15.35;;;3.25;;
55728;SDS011;41633;39.720;2.910;2022-09-16T15:20:30;10.40;;;2.42;;
55728;SDS011;41633;39.720;2.910;2022-09-16T15:22:57;13.40;;;3.38;;
55728;SDS011;41633;39.720;2.910;2022-09-16T15:25:25;12.48;;;3.10;;
55728;SDS011;41633;39.720;2.910;2022-09-16T15:33:20;11.15;;;2.67;;
55728;SDS011;41633;39.720;2.910;2022-09-16T15:35:47;13.15;;;3.10;;
55728;SDS011;41633;39.720;2.910;2022-09-16T15:38:19;14.00;;;3.22;;
55728;SDS011;41633;39.720;2.910;2022-09-16T15:40:45;11.32;;;2.90;;
55728;SDS011;41633;39.720;2.910;2022-09-16T15:45:38;10.15;;;3.05;;
55728;SDS011;41633;39.720;2.910;2022-09-16T15:48:27;12.35;;;3.15;;
55728;SDS011;41633;39.720;2.910;2022-09-16T15:50:59;11.68;;;2.50;;
55728;SDS011;41633;39.720;2.910;2022-09-16T16:03:24;12.68;;;2.72;;
55728;SDS011;41633;39.720;2.910;2022-09-16T16:05:50;10.63;;;2.30;;
55728;SDS011;41633;39.720;2.910;2022-09-16T16:08:36;11.23;;;2.38;;
55728;SDS011;41633;39.720;2.910;2022-09-16T16:11:05;13.98;;;2.83;;
55728;SDS011;41633;39.720;2.910;2022-09-16T16:13:32;9.43;;;2.53;;
55728;SDS011;41633;39.720;2.910;2022-09-16T16:15:58;10.43;;;2.45;;
55728;SDS011;41633;39.720;2.910;2022-09-16T16:18:24;10.23;;;2.47;;
55728;SDS011;41633;39.720;2.910;2022-09-16T16:20:50;10.07;;;2.47;;
55728;SDS011;41633;39.720;2.910;2022-09-16T16:23:16;9.98;;;2.50;;
55728;SDS011;41633;39.720;2.910;2022-09-16T16:25:42;11.15;;;2.67;;
55728;SDS011;41633;39.720;2.910;2022-09-16T16:28:08;10.20;;;2.53;;
55728;SDS011;41633;39.720;2.910;2022-09-16T16:30:34;11.38;;;2.42;;
55728;SDS011;41633;39.720;2.910;2022-09-16T16:33:01;9.55;;;2.50;;
55728;SDS011;41633;39.720;2.910;2022-09-16T16:35:27;9.48;;;2.55;;
55728;SDS011;41633;39.720;2.910;2022-09-16T16:37:53;10.85;;;2.72;;
55728;SDS011;41633;39.720;2.910;2022-09-16T16:40:19;9.38;;;2.65;;
55728;SDS011;41633;39.720;2.910;2022-09-16T16:42:45;9.85;;;2.30;;
55728;SDS011;41633;39.720;2.910;2022-09-16T16:45:11;10.85;;;2.55;;
55728;SDS011;41633;39.720;2.910;2022-09-16T16:47:38;10.80;;;2.38;;
55728;SDS011;41633;39.720;2.910;2022-09-16T16:50:04;9.27;;;2.40;;
55728;SDS011;41633;39.720;2.910;2022-09-16T16:52:30;11.75;;;2.83;;
55728;SDS011;41633;39.720;2.910;2022-09-16T16:54:57;13.00;;;2.92;;
55728;SDS011;41633;39.720;2.910;2022-09-16T16:57:23;10.43;;;2.40;;
55728;SDS011;41633;39.720;2.910;2022-09-16T16:59:49;11.35;;;2.63;;
55728;SDS011;41633;39.720;2.910;2022-09-16T17:02:16;10.20;;;2.70;;
55728;SDS011;41633;39.720;2.910;2022-09-16T17:04:42;11.20;;;2.33;;
55728;SDS011;41633;39.720;2.910;2022-09-16T17:07:08;11.02;;;2.67;;
55728;SDS011;41633;39.720;2.910;2022-09-16T17:09:34;9.27;;;2.67;;
55728;SDS011;41633;39.720;2.910;2022-09-16T17:12:01;9.95;;;2.50;;
55728;SDS011;41633;39.720;2.910;2022-09-16T17:14:29;11.13;;;2.80;;
55728;SDS011;41633;39.720;2.910;2022-09-16T17:16:55;9.63;;;2.47;;
55728;SDS011;41633;39.720;2.910;2022-09-16T17:19:23;11.30;;;2.83;;
55728;SDS011;41633;39.720;2.910;2022-09-16T17:21:50;10.32;;;2.80;;
55728;SDS011;41633;39.720;2.910;2022-09-16T17:24:21;11.00;;;2.55;;
55728;SDS011;41633;39.720;2.910;2022-09-16T17:26:48;11.48;;;3.38;;
55728;SDS011;41633;39.720;2.910;2022-09-16T17:29:14;14.65;;;3.30;;
55728;SDS011;41633;39.720;2.910;2022-09-16T17:31:40;13.27;;;3.00;;
55728;SDS011;41633;39.720;2.910;2022-09-16T17:34:08;13.30;;;3.22;;
55728;SDS011;41633;39.720;2.910;2022-09-16T17:36:35;11.93;;;2.70;;
55728;SDS011;41633;39.720;2.910;2022-09-16T17:39:05;11.52;;;2.72;;
55728;SDS011;41633;39.720;2.910;2022-09-16T17:41:32;9.57;;;2.40;;
55728;SDS011;41633;39.720;2.910;2022-09-16T17:44:02;10.48;;;2.67;;
55728;SDS011;41633;39.720;2.910;2022-09-16T17:46:28;10.45;;;2.53;;
55728;SDS011;41633;39.720;2.910;2022-09-16T17:48:58;12.73;;;2.97;;
55728;SDS011;41633;39.720;2.910;2022-09-16T17:51:24;10.50;;;2.50;;
55728;SDS011;41633;39.720;2.910;2022-09-16T17:53:51;11.05;;;2.70;;
55728;SDS011;41633;39.720;2.910;2022-09-16T17:56:17;11.55;;;2.92;;
55728;SDS011;41633;39.720;2.910;2022-09-16T17:58:44;10.93;;;3.13;;